sensor_id;sensor_type;location;lat;lon;timestamp;P1;durP1;ratioP1;P2;durP2;ratioP2
2602;SDS011;1311;47.966;7.958;2023-04-07T00:01:29;2.27;;;2.07;;
2602;SDS011;1311;47.966;7.958;2023-04-07T00:03:56;3.07;;;2.23;;
2602;SDS011;1311;47.966;7.958;2023-04-07T00:06:23;4.47;;;2.10;;
2602;SDS011;1311;47.966;7.958;2023-04-07T00:08:51;2.43;;;2.23;;
2602;SDS011;1311;47.966;7.958;2023-04-07T00:11:18;3.10;;;2.30;;
2602;SDS011;1311;47.966;7.958;2023-04-07T00:13:46;2.67;;;2.47;;
2602;SDS011;1311;47.966;7.958;2023-04-07T00:16:13;2.50;;;1.90;;
2602;SDS011;1311;47.966;7.958;2023-04-07T00:18:39;2.70;;;2.50;;
2602;SDS011;1311;47.966;7.958;2023-04-07T00:21:06;2.83;;;2.53;;
2602;SDS011;1311;47.966;7.958;2023-04-07T00:23:33;3.87;;;2.47;;
2602;SDS011;1311;47.966;7.958;2023-04-07T00:26:00;3.50;;;2.60;;
2602;SDS011;1311;47.966;7.958;2023-04-07T00:28:27;4.40;;;2.70;;
2602;SDS011;1311;47.966;7.958;2023-04-07T00:30:55;5.07;;;2.50;;
2602;SDS011;1311;47.966;7.958;2023-04-07T00:33:21;3.40;;;2.80;;
2602;SDS011;1311;47.966;7.958;2023-04-07T00:35:48;3.80;;;3.03;;
2602;SDS011;1311;47.966;7.958;2023-04-07T00:38:15;2.80;;;2.50;;
2602;SDS011;1311;47.966;7.958;2023-04-07T00:40:41;3.10;;;2.50;;
2602;SDS011;1311;47.966;7.958;2023-04-07T00:43:08;2.87;;;2.60;;
2602;SDS011;1311;47.966;7.958;2023-04-07T00:45:35;2.97;;;2.70;;
2602;SDS011;1311;47.966;7.958;2023-04-07T00:48:03;3.57;;;3.27;;
2602;SDS011;1311;47.966;7.958;2023-04-07T00:50:30;3.03;;;2.83;;
2602;SDS011;1311;47.966;7.958;2023-04-07T00:52:57;3.37;;;2.93;;
2602;SDS011;1311;47.966;7.958;2023-04-07T00:55:26;4.00;;;2.70;;
2602;SDS011;1311;47.966;7.958;2023-04-07T00:57:53;3.90;;;3.47;;
2602;SDS011;1311;47.966;7.958;2023-04-07T01:00:19;3.53;;;2.83;;
2602;SDS011;1311;47.966;7.958;2023-04-07T01:02:47;3.97;;;3.47;;
2602;SDS011;1311;47.966;7.958;2023-04-07T01:05:22;3.40;;;2.77;;
2602;SDS011;1311;47.966;7.958;2023-04-07T01:07:54;5.80;;;2.97;;
2602;SDS011;1311;47.966;7.958;2023-04-07T01:10:26;4.37;;;2.90;;
2602;SDS011;1311;47.966;7.958;2023-04-07T01:13:01;2.80;;;2.60;;
2602;SDS011;1311;47.966;7.958;2023-04-07T01:15:31;2.50;;;2.30;;
2602;SDS011;1311;47.966;7.958;2023-04-07T01:18:02;3.90;;;3.50;;
2602;SDS011;1311;47.966;7.958;2023-04-07T01:20:36;2.87;;;2.67;;
2602;SDS011;1311;47.966;7.958;2023-04-07T01:23:05;3.57;;;2.43;;
2602;SDS011;1311;47.966;7.958;2023-04-07T01:25:36;3.20;;;2.90;;
2602;SDS011;1311;47.966;7.958;2023-04-07T01:31:11;3.10;;;2.80;;
2602;SDS011;1311;47.966;7.958;2023-04-07T01:33:39;3.57;;;3.27;;
2602;SDS011;1311;47.966;7.958;2023-04-07T01:36:10;3.80;;;3.27;;
2602;SDS011;1311;47.966;7.958;2023-04-07T01:38:38;3.47;;;3.17;;
2602;SDS011;1311;47.966;7.958;2023-04-07T01:41:06;3.07;;;2.87;;
2602;SDS011;1311;47.966;7.958;2023-04-07T01:43:35;2.60;;;2.40;;
2602;SDS011;1311;47.966;7.958;2023-04-07T01:46:03;3.03;;;2.73;;
2602;SDS011;1311;47.966;7.958;2023-04-07T01:48:32;3.03;;;2.43;;
2602;SDS011;1311;47.966;7.958;2023-04-07T01:51:00;3.37;;;2.87;;
2602;SDS011;1311;47.966;7.958;2023-04-07T01:53:29;5.97;;;2.67;;
2602;SDS011;1311;47.966;7.958;2023-04-07T01:55:56;3.27;;;2.83;;
2602;SDS011;1311;47.966;7.958;2023-04-07T01:58:23;2.97;;;2.70;;
2602;SDS011;1311;47.966;7.958;2023-04-07T02:00:51;2.80;;;2.60;;
2602;SDS011;1311;47.966;7.958;2023-04-07T02:03:19;3.00;;;2.70;;
2602;SDS011;1311;47.966;7.958;2023-04-07T02:05:51;3.57;;;2.77;;
2602;SDS011;1311;47.966;7.958;2023-04-07T02:08:21;2.80;;;2.43;;
2602;SDS011;1311;47.966;7.958;2023-04-07T02:10:50;5.10;;;2.70;;
2602;SDS011;1311;47.966;7.958;2023-04-07T02:13:18;3.23;;;2.60;;
2602;SDS011;1311;47.966;7.958;2023-04-07T02:15:45;2.83;;;2.30;;
2602;SDS011;1311;47.966;7.958;2023-04-07T02:18:15;2.97;;;2.70;;
2602;SDS011;1311;47.966;7.958;2023-04-07T02:20:42;3.70;;;2.63;;
2602;SDS011;1311;47.966;7.958;2023-04-07T02:23:12;4.80;;;3.20;;
2602;SDS011;1311;47.966;7.958;2023-04-07T02:25:40;2.80;;;2.43;;
2602;SDS011;1311;47.966;7.958;2023-04-07T02:28:07;3.60;;;2.50;;
2602;SDS011;1311;47.966;7.958;2023-04-07T02:30:34;4.73;;;2.77;;
2602;SDS011;1311;47.966;7.958;2023-04-07T02:33:02;3.30;;;2.80;;
2602;SDS011;1311;47.966;7.958;2023-04-07T02:35:29;3.00;;;2.50;;
2602;SDS011;1311;47.966;7.958;2023-04-07T02:37:56;2.97;;;2.43;;
2602;SDS011;1311;47.966;7.958;2023-04-07T02:40:24;3.00;;;2.70;;
2602;SDS011;1311;47.966;7.958;2023-04-07T02:42:50;4.37;;;3.23;;
2602;SDS011;1311;47.966;7.958;2023-04-07T02:45:17;3.73;;;2.73;;
2602;SDS011;1311;47.966;7.958;2023-04-07T02:47:44;3.70;;;2.70;;
2602;SDS011;1311;47.966;7.958;2023-04-07T02:50:10;3.03;;;2.70;;
2602;SDS011;1311;47.966;7.958;2023-04-07T02:52:37;3.27;;;2.90;;
2602;SDS011;1311;47.966;7.958;2023-04-07T02:55:04;2.90;;;2.50;;
2602;SDS011;1311;47.966;7.958;2023-04-07T02:57:33;2.77;;;2.57;;
2602;SDS011;1311;47.966;7.958;2023-04-07T03:00:00;3.13;;;2.60;;
2602;SDS011;1311;47.966;7.958;2023-04-07T03:02:28;2.50;;;2.30;;
2602;SDS011;1311;47.966;7.958;2023-04-07T03:04:54;3.60;;;2.53;;
2602;SDS011;1311;47.966;7.958;2023-04-07T03:07:21;2.17;;;2.07;;
2602;SDS011;1311;47.966;7.958;2023-04-07T03:09:48;2.60;;;2.40;;
2602;SDS011;1311;47.966;7.958;2023-04-07T03:12:14;3.30;;;2.70;;
2602;SDS011;1311;47.966;7.958;2023-04-07T03:14:42;3.33;;;2.80;;
2602;SDS011;1311;47.966;7.958;2023-04-07T03:17:09;2.60;;;2.40;;
2602;SDS011;1311;47.966;7.958;2023-04-07T03:19:36;2.10;;;1.90;;
2602;SDS011;1311;47.966;7.958;2023-04-07T03:22:03;2.37;;;2.17;;
2602;SDS011;1311;47.966;7.958;2023-04-07T03:24:29;2.47;;;2.27;;
2602;SDS011;1311;47.966;7.958;2023-04-07T03:26:56;2.73;;;2.53;;
2602;SDS011;1311;47.966;7.958;2023-04-07T03:29:23;2.10;;;1.90;;
2602;SDS011;1311;47.966;7.958;2023-04-07T03:31:51;3.00;;;2.53;;
2602;SDS011;1311;47.966;7.958;2023-04-07T03:34:18;1.97;;;1.87;;
2602;SDS011;1311;47.966;7.958;2023-04-07T03:36:44;3.03;;;2.57;;
2602;SDS011;1311;47.966;7.958;2023-04-07T03:39:11;3.70;;;2.60;;
2602;SDS011;1311;47.966;7.958;2023-04-07T03:41:38;2.50;;;2.00;;
2602;SDS011;1311;47.966;7.958;2023-04-07T03:44:05;2.40;;;2.20;;
2602;SDS011;1311;47.966;7.958;2023-04-07T03:46:31;2.83;;;2.53;;
2602;SDS011;1311;47.966;7.958;2023-04-07T03:48:59;2.40;;;2.20;;
2602;SDS011;1311;47.966;7.958;2023-04-07T03:51:26;2.50;;;2.30;;
2602;SDS011;1311;47.966;7.958;2023-04-07T03:53:53;3.33;;;2.30;;
2602;SDS011;1311;47.966;7.958;2023-04-07T03:56:20;3.10;;;2.53;;
2602;SDS011;1311;47.966;7.958;2023-04-07T03:58:46;3.40;;;3.10;;
2602;SDS011;1311;47.966;7.958;2023-04-07T04:01:13;3.57;;;2.50;;
2602;SDS011;1311;47.966;7.958;2023-04-07T04:03:41;3.83;;;3.20;;
2602;SDS011;1311;47.966;7.958;2023-04-07T04:06:09;3.10;;;2.47;;
2602;SDS011;1311;47.966;7.958;2023-04-07T04:08:35;3.13;;;2.83;;
2602;SDS011;1311;47.966;7.958;2023-04-07T04:11:02;3.00;;;2.80;;
2602;SDS011;1311;47.966;7.958;2023-04-07T04:13:29;2.50;;;2.30;;
2602;SDS011;1311;47.966;7.958;2023-04-07T04:15:56;2.80;;;2.53;;
2602;SDS011;1311;47.966;7.958;2023-04-07T04:18:22;1.90;;;1.70;;
2602;SDS011;1311;47.966;7.958;2023-04-07T04:20:49;3.00;;;2.60;;
2602;SDS011;1311;47.966;7.958;2023-04-07T04:23:17;2.70;;;2.50;;
2602;SDS011;1311;47.966;7.958;2023-04-07T04:25:44;1.93;;;1.83;;
2602;SDS011;1311;47.966;7.958;2023-04-07T04:28:11;2.77;;;2.57;;
2602;SDS011;1311;47.966;7.958;2023-04-07T04:30:37;2.33;;;2.13;;
2602;SDS011;1311;47.966;7.958;2023-04-07T04:33:05;2.70;;;2.50;;
2602;SDS011;1311;47.966;7.958;2023-04-07T04:35:32;3.17;;;2.27;;
2602;SDS011;1311;47.966;7.958;2023-04-07T04:37:59;3.03;;;2.17;;
2602;SDS011;1311;47.966;7.958;2023-04-07T04:40:27;2.60;;;2.40;;
2602;SDS011;1311;47.966;7.958;2023-04-07T04:42:54;2.10;;;2.00;;
2602;SDS011;1311;47.966;7.958;2023-04-07T04:45:21;3.00;;;2.47;;
2602;SDS011;1311;47.966;7.958;2023-04-07T04:47:47;2.73;;;2.23;;
2602;SDS011;1311;47.966;7.958;2023-04-07T04:50:14;2.73;;;2.33;;
2602;SDS011;1311;47.966;7.958;2023-04-07T04:52:41;2.40;;;2.20;;
2602;SDS011;1311;47.966;7.958;2023-04-07T04:55:08;3.13;;;2.00;;
2602;SDS011;1311;47.966;7.958;2023-04-07T04:57:37;2.47;;;2.17;;
2602;SDS011;1311;47.966;7.958;2023-04-07T05:00:04;3.30;;;2.20;;
2602;SDS011;1311;47.966;7.958;2023-04-07T05:02:32;2.03;;;1.60;;
2602;SDS011;1311;47.966;7.958;2023-04-07T05:04:59;2.20;;;2.00;;
2602;SDS011;1311;47.966;7.958;2023-04-07T05:07:26;2.83;;;2.10;;
2602;SDS011;1311;47.966;7.958;2023-04-07T05:09:53;2.10;;;1.90;;
2602;SDS011;1311;47.966;7.958;2023-04-07T05:12:20;3.27;;;2.33;;
2602;SDS011;1311;47.966;7.958;2023-04-07T05:14:48;2.80;;;2.00;;
2602;SDS011;1311;47.966;7.958;2023-04-07T05:17:15;2.17;;;1.97;;
2602;SDS011;1311;47.966;7.958;2023-04-07T05:19:41;2.53;;;2.33;;
2602;SDS011;1311;47.966;7.958;2023-04-07T05:22:08;2.23;;;1.97;;
2602;SDS011;1311;47.966;7.958;2023-04-07T05:24:35;2.77;;;2.30;;
2602;SDS011;1311;47.966;7.958;2023-04-07T05:27:02;4.00;;;2.00;;
2602;SDS011;1311;47.966;7.958;2023-04-07T05:29:29;2.70;;;2.30;;
2602;SDS011;1311;47.966;7.958;2023-04-07T05:31:57;3.10;;;2.13;;
2602;SDS011;1311;47.966;7.958;2023-04-07T05:34:25;2.30;;;1.90;;
2602;SDS011;1311;47.966;7.958;2023-04-07T05:36:52;2.43;;;2.10;;
2602;SDS011;1311;47.966;7.958;2023-04-07T05:39:18;2.23;;;2.00;;
2602;SDS011;1311;47.966;7.958;2023-04-07T05:41:45;3.90;;;2.80;;
2602;SDS011;1311;47.966;7.958;2023-04-07T05:44:12;2.67;;;2.43;;
2602;SDS011;1311;47.966;7.958;2023-04-07T05:46:39;2.50;;;2.30;;
2602;SDS011;1311;47.966;7.958;2023-04-07T05:49:07;3.30;;;2.60;;
2602;SDS011;1311;47.966;7.958;2023-04-07T05:51:33;3.93;;;2.70;;
2602;SDS011;1311;47.966;7.958;2023-04-07T05:54:00;3.37;;;3.07;;
2602;SDS011;1311;47.966;7.958;2023-04-07T05:56:28;4.00;;;2.70;;
2602;SDS011;1311;47.966;7.958;2023-04-07T05:58:55;3.33;;;2.67;;
2602;SDS011;1311;47.966;7.958;2023-04-07T06:01:23;5.17;;;2.70;;
2602;SDS011;1311;47.966;7.958;2023-04-07T06:03:49;5.60;;;3.00;;
2602;SDS011;1311;47.966;7.958;2023-04-07T06:06:17;2.93;;;2.40;;
2602;SDS011;1311;47.966;7.958;2023-04-07T06:08:44;3.60;;;3.27;;
2602;SDS011;1311;47.966;7.958;2023-04-07T06:11:11;2.77;;;2.47;;
2602;SDS011;1311;47.966;7.958;2023-04-07T06:13:38;2.00;;;1.90;;
2602;SDS011;1311;47.966;7.958;2023-04-07T06:16:05;2.60;;;2.40;;
2602;SDS011;1311;47.966;7.958;2023-04-07T06:18:32;3.07;;;2.60;;
2602;SDS011;1311;47.966;7.958;2023-04-07T06:20:59;3.10;;;2.80;;
2602;SDS011;1311;47.966;7.958;2023-04-07T06:23:27;2.37;;;2.17;;
2602;SDS011;1311;47.966;7.958;2023-04-07T06:25:53;3.17;;;2.53;;
2602;SDS011;1311;47.966;7.958;2023-04-07T06:28:20;3.40;;;3.10;;
2602;SDS011;1311;47.966;7.958;2023-04-07T06:30:47;4.33;;;3.03;;
2602;SDS011;1311;47.966;7.958;2023-04-07T06:33:14;3.50;;;3.20;;
2602;SDS011;1311;47.966;7.958;2023-04-07T06:35:41;4.40;;;4.00;;
2602;SDS011;1311;47.966;7.958;2023-04-07T06:38:08;3.87;;;3.50;;
2602;SDS011;1311;47.966;7.958;2023-04-07T06:40:37;4.40;;;3.60;;
2602;SDS011;1311;47.966;7.958;2023-04-07T06:43:04;4.20;;;3.80;;
2602;SDS011;1311;47.966;7.958;2023-04-07T06:45:31;4.97;;;3.97;;
2602;SDS011;1311;47.966;7.958;2023-04-07T06:47:57;3.97;;;3.67;;
2602;SDS011;1311;47.966;7.958;2023-04-07T06:50:24;3.77;;;3.37;;
2602;SDS011;1311;47.966;7.958;2023-04-07T06:52:51;6.03;;;4.00;;
2602;SDS011;1311;47.966;7.958;2023-04-07T06:55:18;4.60;;;4.10;;
2602;SDS011;1311;47.966;7.958;2023-04-07T06:57:46;4.37;;;3.97;;
2602;SDS011;1311;47.966;7.958;2023-04-07T07:00:14;3.40;;;3.10;;
2602;SDS011;1311;47.966;7.958;2023-04-07T07:02:42;3.87;;;3.57;;
2602;SDS011;1311;47.966;7.958;2023-04-07T07:05:09;5.50;;;3.90;;
2602;SDS011;1311;47.966;7.958;2023-04-07T07:07:35;7.03;;;3.87;;
2602;SDS011;1311;47.966;7.958;2023-04-07T07:10:03;2.93;;;2.73;;
2602;SDS011;1311;47.966;7.958;2023-04-07T07:12:30;3.80;;;3.10;;
2602;SDS011;1311;47.966;7.958;2023-04-07T07:14:58;4.50;;;4.03;;
2602;SDS011;1311;47.966;7.958;2023-04-07T07:17:25;4.40;;;3.50;;
2602;SDS011;1311;47.966;7.958;2023-04-07T07:19:52;3.80;;;3.50;;
2602;SDS011;1311;47.966;7.958;2023-04-07T07:22:18;4.23;;;3.10;;
2602;SDS011;1311;47.966;7.958;2023-04-07T07:24:45;3.93;;;3.53;;
2602;SDS011;1311;47.966;7.958;2023-04-07T07:27:12;4.00;;;3.30;;
2602;SDS011;1311;47.966;7.958;2023-04-07T07:29:39;3.63;;;3.30;;
2602;SDS011;1311;47.966;7.958;2023-04-07T07:32:07;3.97;;;3.67;;
2602;SDS011;1311;47.966;7.958;2023-04-07T07:34:33;4.80;;;3.80;;
2602;SDS011;1311;47.966;7.958;2023-04-07T07:37:00;3.77;;;3.10;;
2602;SDS011;1311;47.966;7.958;2023-04-07T07:39:27;4.53;;;3.50;;
2602;SDS011;1311;47.966;7.958;2023-04-07T07:41:55;5.30;;;4.37;;
2602;SDS011;1311;47.966;7.958;2023-04-07T07:44:22;4.27;;;3.67;;
2602;SDS011;1311;47.966;7.958;2023-04-07T07:46:48;3.87;;;3.43;;
2602;SDS011;1311;47.966;7.958;2023-04-07T07:49:17;3.37;;;2.87;;
2602;SDS011;1311;47.966;7.958;2023-04-07T07:51:43;3.43;;;3.13;;
2602;SDS011;1311;47.966;7.958;2023-04-07T07:54:11;3.00;;;2.73;;
2602;SDS011;1311;47.966;7.958;2023-04-07T07:56:38;3.10;;;2.77;;
2602;SDS011;1311;47.966;7.958;2023-04-07T07:59:05;4.10;;;3.40;;
2602;SDS011;1311;47.966;7.958;2023-04-07T08:01:32;3.63;;;3.27;;
2602;SDS011;1311;47.966;7.958;2023-04-07T08:03:59;2.63;;;2.43;;
2602;SDS011;1311;47.966;7.958;2023-04-07T08:06:27;3.53;;;3.23;;
2602;SDS011;1311;47.966;7.958;2023-04-07T08:08:55;3.30;;;3.00;;
2602;SDS011;1311;47.966;7.958;2023-04-07T08:11:22;4.30;;;2.70;;
2602;SDS011;1311;47.966;7.958;2023-04-07T08:13:49;3.40;;;3.07;;
2602;SDS011;1311;47.966;7.958;2023-04-07T08:16:17;3.37;;;3.07;;
2602;SDS011;1311;47.966;7.958;2023-04-07T08:18:44;3.97;;;3.57;;
2602;SDS011;1311;47.966;7.958;2023-04-07T08:21:11;3.87;;;2.73;;
2602;SDS011;1311;47.966;7.958;2023-04-07T08:23:39;4.13;;;2.93;;
2602;SDS011;1311;47.966;7.958;2023-04-07T08:26:06;3.80;;;2.93;;
2602;SDS011;1311;47.966;7.958;2023-04-07T08:28:33;3.90;;;3.00;;
2602;SDS011;1311;47.966;7.958;2023-04-07T08:31:00;3.50;;;3.20;;
2602;SDS011;1311;47.966;7.958;2023-04-07T08:33:27;4.07;;;3.33;;
2602;SDS011;1311;47.966;7.958;2023-04-07T08:35:54;3.53;;;3.20;;
2602;SDS011;1311;47.966;7.958;2023-04-07T08:38:20;3.53;;;3.23;;
2602;SDS011;1311;47.966;7.958;2023-04-07T08:40:49;3.83;;;3.43;;
2602;SDS011;1311;47.966;7.958;2023-04-07T08:43:28;4.20;;;3.30;;
2602;SDS011;1311;47.966;7.958;2023-04-07T08:45:55;3.83;;;3.40;;
2602;SDS011;1311;47.966;7.958;2023-04-07T08:48:23;3.80;;;3.47;;
2602;SDS011;1311;47.966;7.958;2023-04-07T08:50:51;4.23;;;3.83;;
2602;SDS011;1311;47.966;7.958;2023-04-07T08:53:22;5.33;;;4.10;;
2602;SDS011;1311;47.966;7.958;2023-04-07T08:55:53;4.40;;;3.40;;
2602;SDS011;1311;47.966;7.958;2023-04-07T08:58:20;4.10;;;3.70;;
2602;SDS011;1311;47.966;7.958;2023-04-07T09:00:48;4.23;;;3.83;;
2602;SDS011;1311;47.966;7.958;2023-04-07T09:03:15;6.60;;;3.80;;
2602;SDS011;1311;47.966;7.958;2023-04-07T09:05:43;4.30;;;3.77;;
2602;SDS011;1311;47.966;7.958;2023-04-07T09:08:11;4.43;;;4.03;;
2602;SDS011;1311;47.966;7.958;2023-04-07T09:10:37;6.20;;;4.03;;
2602;SDS011;1311;47.966;7.958;2023-04-07T09:13:06;4.13;;;3.80;;
2602;SDS011;1311;47.966;7.958;2023-04-07T09:15:32;8.00;;;4.00;;
2602;SDS011;1311;47.966;7.958;2023-04-07T09:18:00;4.63;;;4.20;;
2602;SDS011;1311;47.966;7.958;2023-04-07T09:20:26;3.70;;;3.40;;
2602;SDS011;1311;47.966;7.958;2023-04-07T09:22:53;4.90;;;4.40;;
2602;SDS011;1311;47.966;7.958;2023-04-07T09:25:21;4.23;;;3.83;;
2602;SDS011;1311;47.966;7.958;2023-04-07T09:27:55;5.03;;;4.40;;
2602;SDS011;1311;47.966;7.958;2023-04-07T09:30:24;6.13;;;5.13;;
2602;SDS011;1311;47.966;7.958;2023-04-07T09:32:51;5.73;;;5.23;;
2602;SDS011;1311;47.966;7.958;2023-04-07T09:35:17;6.47;;;4.73;;
2602;SDS011;1311;47.966;7.958;2023-04-07T09:37:53;7.33;;;6.63;;
2602;SDS011;1311;47.966;7.958;2023-04-07T09:40:27;5.27;;;4.70;;
2602;SDS011;1311;47.966;7.958;2023-04-07T09:42:54;5.60;;;5.00;;
2602;SDS011;1311;47.966;7.958;2023-04-07T09:45:24;5.07;;;4.50;;
2602;SDS011;1311;47.966;7.958;2023-04-07T09:47:51;7.30;;;4.83;;
2602;SDS011;1311;47.966;7.958;2023-04-07T09:50:29;7.03;;;5.27;;
2602;SDS011;1311;47.966;7.958;2023-04-07T09:52:58;5.27;;;4.77;;
2602;SDS011;1311;47.966;7.958;2023-04-07T09:55:27;4.63;;;4.17;;
2602;SDS011;1311;47.966;7.958;2023-04-07T09:57:54;4.77;;;3.73;;
2602;SDS011;1311;47.966;7.958;2023-04-07T10:00:20;4.87;;;4.37;;
2602;SDS011;1311;47.966;7.958;2023-04-07T10:02:49;5.00;;;4.60;;
2602;SDS011;1311;47.966;7.958;2023-04-07T10:05:17;4.33;;;3.93;;
2602;SDS011;1311;47.966;7.958;2023-04-07T10:07:45;4.50;;;4.07;;
2602;SDS011;1311;47.966;7.958;2023-04-07T10:10:12;3.90;;;3.47;;
2602;SDS011;1311;47.966;7.958;2023-04-07T10:12:39;4.60;;;4.00;;
2602;SDS011;1311;47.966;7.958;2023-04-07T10:15:07;3.40;;;3.10;;
2602;SDS011;1311;47.966;7.958;2023-04-07T10:17:39;4.40;;;3.03;;
2602;SDS011;1311;47.966;7.958;2023-04-07T10:20:12;2.97;;;2.73;;
2602;SDS011;1311;47.966;7.958;2023-04-07T10:22:41;3.07;;;2.77;;
2602;SDS011;1311;47.966;7.958;2023-04-07T10:25:10;3.20;;;2.90;;
2602;SDS011;1311;47.966;7.958;2023-04-07T10:27:42;3.30;;;2.63;;
2602;SDS011;1311;47.966;7.958;2023-04-07T10:30:19;3.23;;;2.83;;
2602;SDS011;1311;47.966;7.958;2023-04-07T10:32:48;3.27;;;2.87;;
2602;SDS011;1311;47.966;7.958;2023-04-07T10:35:17;4.17;;;3.50;;
2602;SDS011;1311;47.966;7.958;2023-04-07T10:40:37;2.70;;;2.50;;
2602;SDS011;1311;47.966;7.958;2023-04-07T10:43:05;2.90;;;2.70;;
2602;SDS011;1311;47.966;7.958;2023-04-07T10:45:51;2.60;;;2.20;;
2602;SDS011;1311;47.966;7.958;2023-04-07T10:48:23;2.53;;;2.33;;
2602;SDS011;1311;47.966;7.958;2023-04-07T10:51:12;3.60;;;2.83;;
2602;SDS011;1311;47.966;7.958;2023-04-07T10:59:37;3.00;;;2.80;;
2602;SDS011;1311;47.966;7.958;2023-04-07T11:04:59;3.30;;;3.00;;
2602;SDS011;1311;47.966;7.958;2023-04-07T11:07:44;2.70;;;2.50;;
2602;SDS011;1311;47.966;7.958;2023-04-07T11:10:14;2.37;;;2.17;;
2602;SDS011;1311;47.966;7.958;2023-04-07T11:12:42;2.40;;;2.20;;
2602;SDS011;1311;47.966;7.958;2023-04-07T11:15:17;2.33;;;2.13;;
2602;SDS011;1311;47.966;7.958;2023-04-07T11:17:46;2.77;;;2.20;;
2602;SDS011;1311;47.966;7.958;2023-04-07T11:20:39;2.30;;;2.07;;
2602;SDS011;1311;47.966;7.958;2023-04-07T11:23:07;3.57;;;3.10;;
2602;SDS011;1311;47.966;7.958;2023-04-07T11:25:35;2.63;;;2.43;;
2602;SDS011;1311;47.966;7.958;2023-04-07T11:28:02;2.53;;;2.33;;
2602;SDS011;1311;47.966;7.958;2023-04-07T11:30:29;6.27;;;3.60;;
2602;SDS011;1311;47.966;7.958;2023-04-07T11:32:57;2.87;;;2.67;;
2602;SDS011;1311;47.966;7.958;2023-04-07T11:35:24;1.83;;;1.73;;
2602;SDS011;1311;47.966;7.958;2023-04-07T11:37:55;2.60;;;2.00;;
2602;SDS011;1311;47.966;7.958;2023-04-07T11:40:31;2.57;;;2.23;;
2602;SDS011;1311;47.966;7.958;2023-04-07T11:42:59;1.97;;;1.70;;
2602;SDS011;1311;47.966;7.958;2023-04-07T11:45:26;2.17;;;1.80;;
2602;SDS011;1311;47.966;7.958;2023-04-07T11:47:53;3.70;;;2.40;;
2602;SDS011;1311;47.966;7.958;2023-04-07T11:53:05;3.00;;;2.10;;
2602;SDS011;1311;47.966;7.958;2023-04-07T11:55:34;7.20;;;4.87;;
2602;SDS011;1311;47.966;7.958;2023-04-07T11:58:04;7.80;;;5.40;;
2602;SDS011;1311;47.966;7.958;2023-04-07T12:00:34;9.90;;;4.70;;
2602;SDS011;1311;47.966;7.958;2023-04-07T12:03:08;6.90;;;6.20;;
2602;SDS011;1311;47.966;7.958;2023-04-07T12:05:47;2.73;;;2.53;;
2602;SDS011;1311;47.966;7.958;2023-04-07T12:08:20;3.10;;;2.50;;
2602;SDS011;1311;47.966;7.958;2023-04-07T12:11:05;2.33;;;2.13;;
2602;SDS011;1311;47.966;7.958;2023-04-07T12:13:33;2.50;;;2.30;;
2602;SDS011;1311;47.966;7.958;2023-04-07T12:16:00;3.00;;;2.67;;
2602;SDS011;1311;47.966;7.958;2023-04-07T12:18:27;2.20;;;2.00;;
2602;SDS011;1311;47.966;7.958;2023-04-07T12:20:54;2.83;;;2.57;;
2602;SDS011;1311;47.966;7.958;2023-04-07T12:23:22;2.47;;;2.27;;
2602;SDS011;1311;47.966;7.958;2023-04-07T12:25:49;3.43;;;2.10;;
2602;SDS011;1311;47.966;7.958;2023-04-07T12:28:17;2.50;;;2.30;;
2602;SDS011;1311;47.966;7.958;2023-04-07T12:30:44;3.40;;;2.43;;
2602;SDS011;1311;47.966;7.958;2023-04-07T12:33:11;2.40;;;2.17;;
2602;SDS011;1311;47.966;7.958;2023-04-07T12:35:38;4.10;;;3.60;;
2602;SDS011;1311;47.966;7.958;2023-04-07T12:38:04;19.07;;;9.23;;
2602;SDS011;1311;47.966;7.958;2023-04-07T12:40:32;20.77;;;9.23;;
2602;SDS011;1311;47.966;7.958;2023-04-07T12:43:00;11.53;;;6.07;;
2602;SDS011;1311;47.966;7.958;2023-04-07T12:45:29;54.23;;;21.93;;
2602;SDS011;1311;47.966;7.958;2023-04-07T12:47:56;73.13;;;25.67;;
2602;SDS011;1311;47.966;7.958;2023-04-07T12:50:23;22.90;;;13.67;;
2602;SDS011;1311;47.966;7.958;2023-04-07T12:52:50;6.10;;;5.50;;
2602;SDS011;1311;47.966;7.958;2023-04-07T12:55:18;5.17;;;4.67;;
2602;SDS011;1311;47.966;7.958;2023-04-07T12:57:45;2.90;;;2.70;;
2602;SDS011;1311;47.966;7.958;2023-04-07T13:00:13;3.80;;;3.47;;
2602;SDS011;1311;47.966;7.958;2023-04-07T13:02:42;2.47;;;2.23;;
2602;SDS011;1311;47.966;7.958;2023-04-07T13:05:08;2.83;;;2.63;;
2602;SDS011;1311;47.966;7.958;2023-04-07T13:07:35;2.50;;;2.30;;
2602;SDS011;1311;47.966;7.958;2023-04-07T13:10:02;2.50;;;2.30;;
2602;SDS011;1311;47.966;7.958;2023-04-07T13:12:32;2.60;;;2.40;;
2602;SDS011;1311;47.966;7.958;2023-04-07T13:14:59;2.27;;;2.07;;
2602;SDS011;1311;47.966;7.958;2023-04-07T13:17:26;2.30;;;2.10;;
2602;SDS011;1311;47.966;7.958;2023-04-07T13:19:55;2.40;;;2.20;;
2602;SDS011;1311;47.966;7.958;2023-04-07T13:22:22;2.33;;;2.13;;
2602;SDS011;1311;47.966;7.958;2023-04-07T13:24:49;1.97;;;1.80;;
2602;SDS011;1311;47.966;7.958;2023-04-07T13:27:15;2.23;;;2.07;;
2602;SDS011;1311;47.966;7.958;2023-04-07T13:29:42;2.27;;;2.07;;
2602;SDS011;1311;47.966;7.958;2023-04-07T13:32:10;2.57;;;2.37;;
2602;SDS011;1311;47.966;7.958;2023-04-07T13:34:38;2.53;;;2.33;;
2602;SDS011;1311;47.966;7.958;2023-04-07T13:37:06;2.30;;;2.10;;
2602;SDS011;1311;47.966;7.958;2023-04-07T13:39:33;2.67;;;2.10;;
2602;SDS011;1311;47.966;7.958;2023-04-07T13:42:00;2.80;;;2.60;;
2602;SDS011;1311;47.966;7.958;2023-04-07T13:44:28;2.93;;;2.50;;
2602;SDS011;1311;47.966;7.958;2023-04-07T13:46:56;2.60;;;2.40;;
2602;SDS011;1311;47.966;7.958;2023-04-07T13:49:23;2.23;;;2.03;;
2602;SDS011;1311;47.966;7.958;2023-04-07T13:51:50;2.10;;;2.00;;
2602;SDS011;1311;47.966;7.958;2023-04-07T13:54:18;2.33;;;2.13;;
2602;SDS011;1311;47.966;7.958;2023-04-07T13:56:44;2.63;;;2.00;;
2602;SDS011;1311;47.966;7.958;2023-04-07T13:59:13;2.47;;;2.23;;
2602;SDS011;1311;47.966;7.958;2023-04-07T14:01:40;1.93;;;1.83;;
2602;SDS011;1311;47.966;7.958;2023-04-07T14:04:06;2.20;;;2.10;;
2602;SDS011;1311;47.966;7.958;2023-04-07T14:06:33;2.50;;;2.30;;
2602;SDS011;1311;47.966;7.958;2023-04-07T14:09:01;2.40;;;2.00;;
2602;SDS011;1311;47.966;7.958;2023-04-07T14:11:31;2.97;;;2.70;;
2602;SDS011;1311;47.966;7.958;2023-04-07T14:13:58;2.10;;;1.90;;
2602;SDS011;1311;47.966;7.958;2023-04-07T14:16:26;2.37;;;2.17;;
2602;SDS011;1311;47.966;7.958;2023-04-07T14:18:52;1.93;;;1.43;;
2602;SDS011;1311;47.966;7.958;2023-04-07T14:21:19;2.30;;;2.10;;
2602;SDS011;1311;47.966;7.958;2023-04-07T14:23:46;3.73;;;2.30;;
2602;SDS011;1311;47.966;7.958;2023-04-07T14:26:13;2.30;;;2.10;;
2602;SDS011;1311;47.966;7.958;2023-04-07T14:28:41;1.93;;;1.73;;
2602;SDS011;1311;47.966;7.958;2023-04-07T14:31:10;1.90;;;1.80;;
2602;SDS011;1311;47.966;7.958;2023-04-07T14:33:38;2.10;;;1.90;;
2602;SDS011;1311;47.966;7.958;2023-04-07T14:36:05;1.93;;;1.73;;
2602;SDS011;1311;47.966;7.958;2023-04-07T14:38:31;3.50;;;2.20;;
2602;SDS011;1311;47.966;7.958;2023-04-07T14:40:58;2.20;;;2.00;;
2602;SDS011;1311;47.966;7.958;2023-04-07T14:43:27;1.80;;;1.70;;
2602;SDS011;1311;47.966;7.958;2023-04-07T14:45:55;2.50;;;2.10;;
2602;SDS011;1311;47.966;7.958;2023-04-07T14:48:23;2.30;;;2.10;;
2602;SDS011;1311;47.966;7.958;2023-04-07T14:50:50;2.90;;;2.40;;
2602;SDS011;1311;47.966;7.958;2023-04-07T14:53:17;4.23;;;2.97;;
2602;SDS011;1311;47.966;7.958;2023-04-07T14:55:45;2.27;;;2.07;;
2602;SDS011;1311;47.966;7.958;2023-04-07T14:58:12;2.73;;;2.50;;
2602;SDS011;1311;47.966;7.958;2023-04-07T15:00:39;2.03;;;1.93;;
2602;SDS011;1311;47.966;7.958;2023-04-07T15:03:07;2.30;;;2.10;;
2602;SDS011;1311;47.966;7.958;2023-04-07T15:05:34;2.30;;;2.17;;
2602;SDS011;1311;47.966;7.958;2023-04-07T15:08:01;2.00;;;1.80;;
2602;SDS011;1311;47.966;7.958;2023-04-07T15:10:28;2.20;;;2.00;;
2602;SDS011;1311;47.966;7.958;2023-04-07T15:12:55;2.40;;;2.17;;
2602;SDS011;1311;47.966;7.958;2023-04-07T15:15:23;3.10;;;2.80;;
2602;SDS011;1311;47.966;7.958;2023-04-07T15:17:50;2.87;;;2.53;;
2602;SDS011;1311;47.966;7.958;2023-04-07T15:20:18;3.10;;;2.80;;
2602;SDS011;1311;47.966;7.958;2023-04-07T15:22:45;4.00;;;3.10;;
2602;SDS011;1311;47.966;7.958;2023-04-07T15:25:13;4.00;;;2.90;;
2602;SDS011;1311;47.966;7.958;2023-04-07T15:27:40;3.63;;;3.10;;
2602;SDS011;1311;47.966;7.958;2023-04-07T15:30:07;3.77;;;3.07;;
2602;SDS011;1311;47.966;7.958;2023-04-07T15:32:35;3.50;;;2.60;;
2602;SDS011;1311;47.966;7.958;2023-04-07T15:35:02;3.20;;;2.90;;
2602;SDS011;1311;47.966;7.958;2023-04-07T15:37:31;3.27;;;3.00;;